createdAt,value
2024-05-09T00:00:22.549Z,9.52
2024-05-09T00:03:23.991Z,9.50
2024-05-09T00:05:57.654Z,9.40
2024-05-09T00:08:31.533Z,9.40
2024-05-09T00:11:05.835Z,9.30
2024-05-09T00:13:39.658Z,9.30
2024-05-09T00:16:13.579Z,9.30
2024-05-09T00:18:47.284Z,9.30
2024-05-09T00:21:20.926Z,9.30
2024-05-09T00:23:54.919Z,9.30
2024-05-09T00:26:28.717Z,9.30
2024-05-09T00:29:02.754Z,9.30
2024-05-09T00:31:36.421Z,9.20
2024-05-09T00:34:10.300Z,9.20
2024-05-09T00:36:44.324Z,9.20
2024-05-09T00:39:18.265Z,9.10
2024-05-09T00:41:51.946Z,9.10
2024-05-09T00:44:26.028Z,9.02
2024-05-09T00:47:00.238Z,9.00
2024-05-09T00:49:34.864Z,8.90
2024-05-09T00:52:11.755Z,8.90
2024-05-09T00:54:45.385Z,8.90
2024-05-09T00:57:19.700Z,8.82
2024-05-09T00:59:54.637Z,8.80
2024-05-09T01:02:29.026Z,8.80
2024-05-09T01:05:03.159Z,8.80
2024-05-09T01:07:37.150Z,8.80
2024-05-09T01:10:17.130Z,8.80
2024-05-09T01:12:54.726Z,8.70
2024-05-09T01:15:28.371Z,8.70
2024-05-09T01:18:04.869Z,8.68
2024-05-09T01:20:42.459Z,8.60
2024-05-09T01:23:18.359Z,8.50
2024-05-09T01:25:51.953Z,8.50
2024-05-09T01:28:25.638Z,8.40
2024-05-09T01:30:59.369Z,8.30
2024-05-09T01:33:33.661Z,8.30
2024-05-09T01:36:08.469Z,8.20
2024-05-09T01:38:42.117Z,8.20
2024-05-09T01:41:16.259Z,8.18
2024-05-09T01:43:49.873Z,8.10
2024-05-09T01:46:23.561Z,8.10
2024-05-09T01:48:57.664Z,8.00
2024-05-09T01:51:31.330Z,8.00
2024-05-09T01:54:05.258Z,7.90
2024-05-09T01:56:39.048Z,7.90
2024-05-09T01:59:12.753Z,7.80
2024-05-09T02:01:56.510Z,7.70
2024-05-09T02:04:31.528Z,7.70
2024-05-09T02:07:06.976Z,7.60
2024-05-09T02:09:40.705Z,7.50
2024-05-09T02:12:14.140Z,7.50
2024-05-09T02:14:48.009Z,7.40
2024-05-09T02:17:21.863Z,7.40
2024-05-09T02:19:56.034Z,7.40
2024-05-09T02:22:29.756Z,7.30
2024-05-09T02:25:03.451Z,7.20
2024-05-09T02:27:37.264Z,7.10
2024-05-09T02:30:18.973Z,7.00
2024-05-09T02:32:59.951Z,6.90
2024-05-09T02:35:33.809Z,6.90
2024-05-09T02:38:07.827Z,6.80
2024-05-09T02:40:41.474Z,6.70
2024-05-09T02:43:15.770Z,6.70
2024-05-09T02:45:49.458Z,6.60
2024-05-09T02:48:23.570Z,6.60
2024-05-09T02:50:57.479Z,6.60
2024-05-09T02:53:31.213Z,6.54
2024-05-09T02:56:05.014Z,6.50
2024-05-09T02:58:38.725Z,6.50
2024-05-09T03:01:12.448Z,6.50
2024-05-09T03:03:50.324Z,6.40
2024-05-09T03:06:24.147Z,6.40
2024-05-09T03:08:58.190Z,6.30
2024-05-09T03:11:32.186Z,6.26
2024-05-09T03:14:06.259Z,6.20
2024-05-09T03:16:43.059Z,6.28
2024-05-09T03:19:16.947Z,6.26
2024-05-09T03:21:50.896Z,6.20
2024-05-09T03:24:24.658Z,6.20
2024-05-09T03:26:58.409Z,6.20
2024-05-09T03:29:32.144Z,6.10
2024-05-09T03:32:06.575Z,6.10
2024-05-09T03:34:41.505Z,6.00
2024-05-09T03:37:15.658Z,6.00
2024-05-09T03:39:49.338Z,6.00
2024-05-09T03:42:23.107Z,6.00
2024-05-09T03:44:56.869Z,6.00
2024-05-09T03:47:32.261Z,6.10
2024-05-09T03:50:14.975Z,6.10
2024-05-09T03:52:52.455Z,6.10
2024-05-09T03:55:26.121Z,6.18
2024-05-09T03:57:59.908Z,6.20
2024-05-09T04:00:38.133Z,6.20
2024-05-09T04:03:13.851Z,6.20
2024-05-09T04:05:48.590Z,6.20
2024-05-09T04:08:22.202Z,6.30
2024-05-09T04:10:55.804Z,6.30
2024-05-09T04:13:29.414Z,6.34
2024-05-09T04:16:03.018Z,6.40
2024-05-09T04:18:36.640Z,6.46
2024-05-09T04:21:11.009Z,6.50
2024-05-09T04:23:44.823Z,6.60
2024-05-09T04:26:18.509Z,6.60
2024-05-09T04:28:52.248Z,6.70
2024-05-09T04:31:29.327Z,6.74
2024-05-09T04:34:03.217Z,6.80
2024-05-09T04:36:37.700Z,6.90
2024-05-09T04:39:12.221Z,7.00
2024-05-09T04:41:46.053Z,7.10
2024-05-09T04:44:19.709Z,7.20
2024-05-09T04:46:53.261Z,7.30
2024-05-09T04:49:27.107Z,7.40
2024-05-09T04:52:00.959Z,7.50
2024-05-09T04:54:36.602Z,7.60
2024-05-09T04:57:10.770Z,7.72
2024-05-09T04:59:44.589Z,7.88
2024-05-09T05:02:18.491Z,8.00
2024-05-09T05:04:52.556Z,8.10
2024-05-09T05:07:26.848Z,8.24
2024-05-09T05:10:00.967Z,8.38
2024-05-09T05:12:52.484Z,8.50
2024-05-09T05:15:26.227Z,8.60
2024-05-09T05:18:00.460Z,8.70
2024-05-09T05:20:34.547Z,8.80
2024-05-09T05:23:13.530Z,8.90
2024-05-09T05:25:48.675Z,9.00
2024-05-09T05:28:22.885Z,9.10
2024-05-09T05:30:58.342Z,9.20
2024-05-09T05:33:32.062Z,9.38
2024-05-09T05:36:06.661Z,9.50
2024-05-09T05:38:40.428Z,9.66
2024-05-09T05:41:14.404Z,9.80
2024-05-09T05:43:48.046Z,9.90
2024-05-09T05:46:21.668Z,10.08
2024-05-09T05:48:55.253Z,10.20
2024-05-09T05:51:28.818Z,10.30
2024-05-09T05:54:02.273Z,10.40
2024-05-09T05:56:36.337Z,10.50
2024-05-09T05:59:11.975Z,10.60
2024-05-09T06:01:47.493Z,10.80
2024-05-09T06:04:21.352Z,10.90
2024-05-09T06:06:55.061Z,11.06
2024-05-09T06:09:28.570Z,11.20
2024-05-09T06:12:02.135Z,11.30
2024-05-09T06:14:35.969Z,11.44
2024-05-09T06:17:10.158Z,11.60
2024-05-09T06:19:44.356Z,11.66
2024-05-09T06:22:18.091Z,11.80
2024-05-09T06:24:51.696Z,11.90
2024-05-09T06:27:26.139Z,12.00
2024-05-09T06:29:59.731Z,12.10
2024-05-09T06:32:33.490Z,12.26
2024-05-09T06:35:11.127Z,12.40
2024-05-09T06:37:51.283Z,12.60
2024-05-09T06:40:29.745Z,12.70
2024-05-09T06:43:17.574Z,12.90
2024-05-09T06:45:54.550Z,13.00
2024-05-09T06:48:29.886Z,13.10
2024-05-09T06:51:03.848Z,13.20
2024-05-09T06:53:40.487Z,13.38
2024-05-09T06:56:15.109Z,13.50
2024-05-09T06:58:48.635Z,13.60
2024-05-09T07:01:22.463Z,13.70
2024-05-09T07:03:56.142Z,13.88
2024-05-09T07:06:30.318Z,14.00
2024-05-09T07:09:03.788Z,14.02
2024-05-09T07:11:38.123Z,14.20
2024-05-09T07:14:11.901Z,14.30
2024-05-09T07:16:45.658Z,14.50
2024-05-09T07:19:20.109Z,14.60
2024-05-09T07:21:53.959Z,14.80
2024-05-09T07:24:27.530Z,14.90
2024-05-09T07:27:01.024Z,15.00
2024-05-09T07:29:37.884Z,15.22
2024-05-09T07:32:12.281Z,15.50
2024-05-09T07:34:46.283Z,15.60
2024-05-09T07:37:20.172Z,15.60
2024-05-09T07:39:53.756Z,15.70
2024-05-09T07:42:27.235Z,15.90
2024-05-09T07:45:20.598Z,16.10
2024-05-09T07:49:43.976Z,16.10
2024-05-09T07:56:00.851Z,16.50
2024-05-09T07:58:34.988Z,16.60
2024-05-09T08:01:09.407Z,16.80
2024-05-09T08:03:43.503Z,16.90
2024-05-09T08:06:17.134Z,16.92
2024-05-09T08:08:51.695Z,16.92
2024-05-09T08:11:25.312Z,17.00
2024-05-09T08:13:59.283Z,16.90
2024-05-09T08:16:32.928Z,16.80
2024-05-09T08:19:07.499Z,16.80
2024-05-09T08:21:41.385Z,16.90
2024-05-09T08:24:14.814Z,17.10
2024-05-09T08:26:48.615Z,17.30
2024-05-09T08:29:22.224Z,17.50
2024-05-09T08:31:58.744Z,17.76
2024-05-09T08:34:32.428Z,18.00
2024-05-09T08:37:13.141Z,18.00
2024-05-09T08:39:54.111Z,17.90
2024-05-09T08:42:31.401Z,17.72
2024-05-09T08:45:07.542Z,17.70
2024-05-09T08:47:41.875Z,17.90
2024-05-09T08:50:31.574Z,18.10
2024-05-09T08:53:14.455Z,18.60
2024-05-09T08:55:52.733Z,19.14
2024-05-09T08:58:30.561Z,19.50
2024-05-09T09:01:05.386Z,19.60
2024-05-09T09:03:41.287Z,20.00
2024-05-09T09:06:18.128Z,19.90
2024-05-09T09:08:53.298Z,20.00
2024-05-09T09:11:27.391Z,19.90
2024-05-09T09:14:03.718Z,20.36
2024-05-09T09:16:38.483Z,20.60
2024-05-09T09:19:12.342Z,21.14
2024-05-09T09:21:46.438Z,21.68
2024-05-09T09:24:20.846Z,21.80
2024-05-09T09:26:59.364Z,21.40
2024-05-09T09:29:35.321Z,21.90
2024-05-09T09:32:11.503Z,22.48
2024-05-09T09:34:48.508Z,22.90
2024-05-09T09:37:29.754Z,23.10
2024-05-09T09:40:08.927Z,23.78
2024-05-09T09:42:44.844Z,24.20
2024-05-09T09:45:22.311Z,23.50
2024-05-09T09:48:00.196Z,23.90
2024-05-09T09:50:36.808Z,23.90
2024-05-09T09:53:13.070Z,24.56
2024-05-09T09:55:49.323Z,25.20
2024-05-09T09:58:25.089Z,24.80
2024-05-09T10:00:59.985Z,25.20
2024-05-09T10:03:35.967Z,25.80
2024-05-09T10:06:12.496Z,25.54
2024-05-09T10:08:49.274Z,25.10
2024-05-09T10:11:25.659Z,24.86
2024-05-09T10:14:03.949Z,24.76
2024-05-09T10:16:44.262Z,25.66
2024-05-09T10:19:29.434Z,26.50
2024-05-09T10:22:09.027Z,26.90
2024-05-09T10:24:53.955Z,26.60
2024-05-09T10:27:52.971Z,25.80
2024-05-09T10:30:36.364Z,25.00
2024-05-09T10:33:14.443Z,25.60
2024-05-09T10:35:56.283Z,26.30
2024-05-09T10:38:30.731Z,27.10
2024-05-09T10:41:04.910Z,26.58
2024-05-09T10:43:42.605Z,26.22
2024-05-09T10:46:18.770Z,25.80
2024-05-09T10:48:53.310Z,25.20
2024-05-09T10:51:27.441Z,25.20
2024-05-09T10:54:02.260Z,24.60
2024-05-09T10:56:36.830Z,24.40
2024-05-09T10:59:10.313Z,24.30
2024-05-09T11:01:44.748Z,24.62
2024-05-09T11:04:19.404Z,25.30
2024-05-09T11:06:53.347Z,25.72
2024-05-09T11:09:27.664Z,26.10
2024-05-09T11:12:01.834Z,26.64
2024-05-09T11:14:36.007Z,27.46
2024-05-09T11:17:11.268Z,27.66
2024-05-09T11:19:46.599Z,27.70
2024-05-09T11:22:21.496Z,28.46
2024-05-09T11:24:56.726Z,29.44
2024-05-09T11:27:32.864Z,29.30
2024-05-09T11:30:24.298Z,29.30
2024-05-09T11:33:05.114Z,29.26
2024-05-09T11:35:38.641Z,28.66
2024-05-09T11:38:12.872Z,27.70
2024-05-09T11:40:47.082Z,27.72
2024-05-09T11:43:20.849Z,28.66
2024-05-09T11:45:55.561Z,29.82
2024-05-09T11:48:29.838Z,29.72
2024-05-09T11:51:03.636Z,28.30
2024-05-09T11:53:37.729Z,27.50
2024-05-09T11:56:14.737Z,27.70
2024-05-09T11:58:48.466Z,28.20
2024-05-09T12:01:23.707Z,28.10
2024-05-09T12:03:59.455Z,28.24
2024-05-09T12:06:33.627Z,28.50
2024-05-09T12:09:07.574Z,28.60
2024-05-09T12:11:41.397Z,28.04
2024-05-09T12:14:15.008Z,27.50
2024-05-09T12:16:50.474Z,27.40
2024-05-09T12:19:24.206Z,27.40
2024-05-09T12:21:59.660Z,27.30
2024-05-09T12:24:33.777Z,27.74
2024-05-09T12:27:08.786Z,28.00
2024-05-09T12:29:42.516Z,27.60
2024-05-09T12:32:16.697Z,27.64
2024-05-09T12:34:50.752Z,27.08
2024-05-09T12:37:24.557Z,26.16
2024-05-09T12:39:58.191Z,25.54
2024-05-09T12:42:33.728Z,25.14
2024-05-09T12:45:09.448Z,24.60
2024-05-09T12:47:43.716Z,24.40
2024-05-09T12:50:25.125Z,24.50
2024-05-09T12:53:05.620Z,24.50
2024-05-09T12:55:47.951Z,25.00
2024-05-09T12:58:27.968Z,26.90
2024-05-09T13:01:01.967Z,28.64
2024-05-09T13:03:36.194Z,30.16
2024-05-09T13:06:10.357Z,31.30
2024-05-09T13:08:44.277Z,31.92
2024-05-09T13:11:18.031Z,32.60
2024-05-09T13:13:52.008Z,32.46
2024-05-09T13:16:26.329Z,31.92
2024-05-09T13:19:00.573Z,31.70
2024-05-09T13:21:34.344Z,31.04
2024-05-09T13:24:09.273Z,30.68
2024-05-09T13:26:43.571Z,30.50
2024-05-09T13:29:17.190Z,31.30
2024-05-09T13:31:51.307Z,32.46
2024-05-09T13:34:25.416Z,33.08
2024-05-09T13:37:01.816Z,34.04
2024-05-09T13:39:36.896Z,34.56
2024-05-09T13:42:11.158Z,34.60
2024-05-09T13:44:44.883Z,34.56
2024-05-09T13:47:18.937Z,34.80
2024-05-09T13:49:52.701Z,34.80
2024-05-09T13:52:26.698Z,34.36
2024-05-09T13:55:00.656Z,33.70
2024-05-09T13:57:35.278Z,33.78
2024-05-09T14:00:22.914Z,34.38
2024-05-09T14:03:05.522Z,34.16
2024-05-09T14:05:39.529Z,33.18
2024-05-09T14:08:15.707Z,33.34
2024-05-09T14:10:52.033Z,33.98
2024-05-09T14:13:25.755Z,34.30
2024-05-09T14:15:59.921Z,34.20
2024-05-09T14:18:34.004Z,33.90
2024-05-09T14:21:08.047Z,34.48
2024-05-09T14:23:41.509Z,34.60
2024-05-09T14:26:15.595Z,35.10
2024-05-09T14:28:49.289Z,35.44
2024-05-09T14:31:22.808Z,35.50
2024-05-09T14:33:56.754Z,35.60
2024-05-09T14:36:30.510Z,35.08
2024-05-09T14:39:04.666Z,34.70
2024-05-09T14:41:38.992Z,34.78
2024-05-09T14:44:12.604Z,35.20
2024-05-09T14:46:46.979Z,35.28
2024-05-09T14:49:20.782Z,36.26
2024-05-09T14:51:54.915Z,36.60
2024-05-09T14:54:28.510Z,36.52
2024-05-09T14:57:02.423Z,35.58
2024-05-09T14:59:35.994Z,34.90
2024-05-09T15:02:10.079Z,34.80
2024-05-09T15:04:44.345Z,35.32
2024-05-09T15:07:18.466Z,35.92
2024-05-09T15:09:52.263Z,36.92
2024-05-09T15:12:26.689Z,38.16
2024-05-09T15:15:03.478Z,38.40
2024-05-09T15:17:37.157Z,38.20
2024-05-09T15:20:17.087Z,38.04
2024-05-09T15:22:54.179Z,37.72
2024-05-09T15:25:27.798Z,37.40
2024-05-09T15:28:02.811Z,37.70
2024-05-09T15:30:36.833Z,37.70
2024-05-09T15:33:11.673Z,37.72
2024-05-09T15:35:46.482Z,37.56
2024-05-09T15:38:20.938Z,37.28
2024-05-09T15:40:54.943Z,37.30
2024-05-09T15:43:28.826Z,37.10
2024-05-09T15:46:03.019Z,37.56
2024-05-09T15:48:37.811Z,37.68
2024-05-09T15:51:13.105Z,37.50
2024-05-09T15:53:46.740Z,37.10
2024-05-09T15:56:20.995Z,36.30
2024-05-09T15:58:54.760Z,36.14
2024-05-09T16:01:28.803Z,36.50
2024-05-09T16:04:03.128Z,36.84
2024-05-09T16:06:37.738Z,37.20
2024-05-09T16:09:13.762Z,36.60
2024-05-09T16:11:47.596Z,36.60
2024-05-09T16:14:21.473Z,36.66
2024-05-09T16:16:55.880Z,36.58
2024-05-09T16:19:29.745Z,36.88
2024-05-09T16:22:03.488Z,37.40
2024-05-09T16:24:38.073Z,36.72
2024-05-09T16:27:12.019Z,36.32
2024-05-09T16:29:46.495Z,36.64
2024-05-09T16:32:20.020Z,36.40
2024-05-09T16:34:53.719Z,36.50
2024-05-09T16:37:29.496Z,36.10
2024-05-09T16:40:04.545Z,36.10
2024-05-09T16:42:39.752Z,35.90
2024-05-09T16:45:13.686Z,35.58
2024-05-09T16:47:47.758Z,35.36
2024-05-09T16:50:28.853Z,34.90
2024-05-09T16:53:07.335Z,34.34
2024-05-09T16:55:41.371Z,33.70
2024-05-09T16:58:17.512Z,33.60
2024-05-09T17:00:51.550Z,33.50
2024-05-09T17:03:25.750Z,33.40
2024-05-09T17:06:03.083Z,33.30
2024-05-09T17:08:37.665Z,33.30
2024-05-09T17:11:12.236Z,33.30
2024-05-09T17:13:48.108Z,32.94
2024-05-09T17:16:23.082Z,32.40
2024-05-09T17:18:57.231Z,31.60
2024-05-09T17:21:33.729Z,30.16
2024-05-09T17:24:08.103Z,28.46
2024-05-09T17:26:42.002Z,27.20
2024-05-09T17:29:16.586Z,26.20
2024-05-09T17:31:50.390Z,25.60
2024-05-09T17:34:24.955Z,24.92
2024-05-09T17:37:00.270Z,24.08
2024-05-09T17:39:34.482Z,23.06
2024-05-09T17:42:08.872Z,22.38
2024-05-09T17:44:43.021Z,22.00
2024-05-09T17:47:16.996Z,21.70
2024-05-09T17:49:51.101Z,21.38
2024-05-09T17:52:25.096Z,20.84
2024-05-09T17:54:59.590Z,20.40
2024-05-09T17:57:33.757Z,20.02
2024-05-09T18:00:11.806Z,19.70
2024-05-09T18:02:48.743Z,19.30
2024-05-09T18:05:22.838Z,19.00
2024-05-09T18:07:57.450Z,18.60
2024-05-09T18:10:36.774Z,18.20
2024-05-09T18:13:14.172Z,17.80
2024-05-09T18:15:48.205Z,17.40
2024-05-09T18:18:22.647Z,17.04
2024-05-09T18:20:56.517Z,16.70
2024-05-09T18:23:31.098Z,16.40
2024-05-09T18:26:05.514Z,16.10
2024-05-09T18:28:39.930Z,15.80
2024-05-09T18:31:14.117Z,15.58
2024-05-09T18:33:48.295Z,15.30
2024-05-09T18:36:22.305Z,15.08
2024-05-09T18:38:56.415Z,14.80
2024-05-09T18:41:30.525Z,14.60
2024-05-09T18:44:04.613Z,14.40
2024-05-09T18:46:38.932Z,14.22
2024-05-09T18:49:13.421Z,14.00
2024-05-09T18:51:49.555Z,13.80
2024-05-09T18:54:23.433Z,13.60
2024-05-09T18:56:57.090Z,13.42
2024-05-09T18:59:30.949Z,13.22
2024-05-09T19:02:05.223Z,13.10
2024-05-09T19:04:39.468Z,13.00
2024-05-09T19:07:14.428Z,12.82
2024-05-09T19:09:48.767Z,12.62
2024-05-09T19:12:22.857Z,12.50
2024-05-09T19:14:56.789Z,12.38
2024-05-09T19:17:32.207Z,12.20
2024-05-09T19:20:11.595Z,12.10
2024-05-09T19:22:51.745Z,12.00
2024-05-09T19:25:29.440Z,11.90
2024-05-09T19:28:04.267Z,11.80
2024-05-09T19:30:41.693Z,11.70
2024-05-09T19:33:17.173Z,11.50
2024-05-09T19:35:51.350Z,11.40
2024-05-09T19:38:25.479Z,11.40
2024-05-09T19:40:59.592Z,11.30
2024-05-09T19:43:36.060Z,11.10
2024-05-09T19:46:10.978Z,11.00
2024-05-09T19:48:45.819Z,10.90
2024-05-09T19:51:20.605Z,10.82
2024-05-09T19:53:55.183Z,10.72
2024-05-09T19:56:29.435Z,10.64
2024-05-09T19:59:04.076Z,10.50
2024-05-09T20:01:38.339Z,10.40
2024-05-09T20:04:13.832Z,10.30
2024-05-09T20:06:48.088Z,10.20
2024-05-09T20:09:22.796Z,10.16
2024-05-09T20:11:56.881Z,10.10
2024-05-09T20:14:31.384Z,10.00
2024-05-09T20:17:05.600Z,10.00
2024-05-09T20:19:39.890Z,10.00
2024-05-09T20:22:14.284Z,9.90
2024-05-09T20:24:48.533Z,9.80
2024-05-09T20:27:22.708Z,9.72
2024-05-09T20:29:57.026Z,9.62
2024-05-09T20:32:31.159Z,9.52
2024-05-09T20:35:05.472Z,9.50
2024-05-09T20:37:39.544Z,9.40
2024-05-09T20:40:21.764Z,9.40
2024-05-09T20:43:02.985Z,9.32
2024-05-09T20:45:37.166Z,9.28
2024-05-09T20:48:12.732Z,9.20
2024-05-09T20:50:46.873Z,9.10
2024-05-09T20:53:23.248Z,9.00
2024-05-09T20:55:57.278Z,9.00
2024-05-09T20:58:31.283Z,8.94
2024-05-09T21:01:05.898Z,8.90
2024-05-09T21:03:41.995Z,8.90
2024-05-09T21:06:16.032Z,8.82
2024-05-09T21:08:49.791Z,8.80
2024-05-09T21:11:24.880Z,8.74
2024-05-09T21:13:58.993Z,8.70
2024-05-09T21:16:34.109Z,8.60
2024-05-09T21:19:08.317Z,8.60
2024-05-09T21:21:46.340Z,8.50
2024-05-09T21:24:20.724Z,8.50
2024-05-09T21:26:55.107Z,8.40
2024-05-09T21:29:29.056Z,8.30
2024-05-09T21:32:02.979Z,8.20
2024-05-09T21:34:36.754Z,8.14
2024-05-09T21:37:10.942Z,8.10
2024-05-09T21:39:45.636Z,8.00
2024-05-09T21:42:19.459Z,8.00
2024-05-09T21:44:53.495Z,7.92
2024-05-09T21:47:27.375Z,7.90
2024-05-09T21:50:01.286Z,7.80
2024-05-09T21:52:34.978Z,7.80
2024-05-09T21:55:09.772Z,7.70
2024-05-09T21:57:43.627Z,7.70
2024-05-09T22:00:28.461Z,7.60
2024-05-09T22:03:10.944Z,7.60
2024-05-09T22:05:45.842Z,7.60
2024-05-09T22:08:19.737Z,7.60
2024-05-09T22:10:53.598Z,7.54
2024-05-09T22:13:28.619Z,7.50
2024-05-09T22:16:03.750Z,7.46
2024-05-09T22:18:38.037Z,7.40
2024-05-09T22:21:11.755Z,7.40
2024-05-09T22:23:45.842Z,7.30
2024-05-09T22:26:19.744Z,7.28
2024-05-09T22:28:53.398Z,7.24
2024-05-09T22:31:28.260Z,7.20
2024-05-09T22:34:02.212Z,7.20
2024-05-09T22:36:36.287Z,7.10
2024-05-09T22:39:10.339Z,7.10
2024-05-09T22:41:45.417Z,7.00
2024-05-09T22:44:19.098Z,7.00
2024-05-09T22:46:52.968Z,7.00
2024-05-09T22:49:26.953Z,6.98
2024-05-09T22:52:00.610Z,6.90
2024-05-09T22:54:34.831Z,6.90
2024-05-09T22:57:09.185Z,6.90
2024-05-09T22:59:42.808Z,6.82
2024-05-09T23:02:17.993Z,6.80
2024-05-09T23:04:51.705Z,6.80
2024-05-09T23:07:25.542Z,6.70
2024-05-09T23:09:59.392Z,6.70
2024-05-09T23:12:33.484Z,6.70
2024-05-09T23:15:08.728Z,6.60
2024-05-09T23:17:42.599Z,6.60
2024-05-09T23:20:25.896Z,6.58
2024-05-09T23:23:04.066Z,6.50
2024-05-09T23:25:38.139Z,6.50
2024-05-09T23:28:12.384Z,6.50
2024-05-09T23:30:46.283Z,6.50
2024-05-09T23:33:20.108Z,6.50
2024-05-09T23:35:53.746Z,6.40
2024-05-09T23:38:27.732Z,6.40
2024-05-09T23:41:01.291Z,6.40
2024-05-09T23:43:36.089Z,6.32
2024-05-09T23:46:09.902Z,6.30
2024-05-09T23:48:43.839Z,6.30
2024-05-09T23:51:18.527Z,6.30
2024-05-09T23:53:52.347Z,6.22
2024-05-09T23:56:25.954Z,6.20
2024-05-09T23:58:59.492Z,6.20
